FFL1201 KSFO-KBFI
Flight info
| Callsign | FFL1201 |
|---|---|
| Flight time | 1h 43m |
| Altitude | 40000 |
| Route | TRUKN2 DEDHD DCT RBL DCT RDD DCT JEXAM DCT BTG OLM2 |
| Aircraft | C525/L-SBDFGRWY/S |
Departure
| Time | 2026-04-20 21:23 |
|---|---|
| Airport | San Francisco International Airport (KSFO) |
Arrival
| Time | 2026-04-20 23:07 |
|---|---|
| Airport | King County International Airport - Boeing Field (KBFI) |
| Time | Latitude | Longitude | Altitude | Speed | Heading |
|---|---|---|---|---|---|
| 2026-04-20 21:08 | 37.62732 | -122.38387 | 20 ft | 0 kts | 298° |
| 2026-04-20 21:20 | 37.62735 | -122.38400 | 20 ft | 2 kts | 269° |
| 2026-04-20 21:20 | 37.62725 | -122.38425 | 20 ft | 2 kts | 232° |
| 2026-04-20 21:20 | 37.62706 | -122.38447 | 21 ft | 4 kts | 216° |
| 2026-04-20 21:20 | 37.62677 | -122.38486 | 21 ft | 7 kts | 264° |
| 2026-04-20 21:21 | 37.62701 | -122.38557 | 20 ft | 10 kts | 298° |
| 2026-04-20 21:21 | 37.62741 | -122.38653 | 20 ft | 13 kts | 297° |
| 2026-04-20 21:21 | 37.62792 | -122.38774 | 19 ft | 17 kts | 297° |
| 2026-04-20 21:21 | 37.62854 | -122.38922 | 18 ft | 20 kts | 299° |
| 2026-04-20 21:22 | 37.62912 | -122.39057 | 17 ft | 14 kts | 298° |
| 2026-04-20 21:22 | 37.62954 | -122.39161 | 16 ft | 14 kts | 291° |
| 2026-04-20 21:22 | 37.62937 | -122.39271 | 16 ft | 11 kts | 220° |
| 2026-04-20 21:22 | 37.62865 | -122.39297 | 16 ft | 10 kts | 143° |
| 2026-04-20 21:23 | 37.62801 | -122.39166 | 18 ft | 34 kts | 119° |
| 2026-04-20 21:23 | 37.62587 | -122.38656 | 22 ft | 97 kts | 119° |
| 2026-04-20 21:23 | 37.62209 | -122.37792 | 331 ft | 114 kts | 124° |
| 2026-04-20 21:23 | 37.61800 | -122.36825 | 679 ft | 139 kts | 123° |
| 2026-04-20 21:24 | 37.61326 | -122.35644 | 1141 ft | 158 kts | 122° |
| 2026-04-20 21:24 | 37.60833 | -122.34383 | 1777 ft | 158 kts | 124° |
| 2026-04-20 21:24 | 37.60307 | -122.33082 | 2204 ft | 172 kts | 124° |
| 2026-04-20 21:24 | 37.59746 | -122.31704 | 2858 ft | 171 kts | 124° |
| 2026-04-20 21:25 | 37.59229 | -122.30405 | 3548 ft | 167 kts | 124° |
| 2026-04-20 21:25 | 37.58725 | -122.29146 | 4148 ft | 166 kts | 125° |
| 2026-04-20 21:25 | 37.58208 | -122.27854 | 4736 ft | 165 kts | 124° |
| 2026-04-20 21:25 | 37.57669 | -122.26516 | 5100 ft | 179 kts | 124° |
| 2026-04-20 21:26 | 37.57113 | -122.25124 | 5731 ft | 179 kts | 125° |
| 2026-04-20 21:26 | 37.56558 | -122.23713 | 6309 ft | 181 kts | 123° |
| 2026-04-20 21:26 | 37.56020 | -122.22276 | 6870 ft | 183 kts | 123° |
| 2026-04-20 21:26 | 37.55480 | -122.20818 | 7397 ft | 187 kts | 123° |
| 2026-04-20 21:27 | 37.54938 | -122.19353 | 7943 ft | 188 kts | 123° |
| 2026-04-20 21:27 | 37.54388 | -122.17869 | 8485 ft | 189 kts | 124° |
| 2026-04-20 21:27 | 37.53858 | -122.16350 | 8992 ft | 195 kts | 116° |
| 2026-04-20 21:27 | 37.53966 | -122.14572 | 9462 ft | 222 kts | 75° |
| 2026-04-20 21:28 | 37.54906 | -122.12972 | 9954 ft | 234 kts | 53° |
| 2026-04-20 21:28 | 37.56083 | -122.11545 | 10412 ft | 239 kts | 49° |
| 2026-04-20 21:28 | 37.57323 | -122.10145 | 10874 ft | 242 kts | 47° |
| 2026-04-20 21:28 | 37.58577 | -122.08741 | 11343 ft | 243 kts | 47° |
| 2026-04-20 21:29 | 37.59845 | -122.07315 | 11774 ft | 246 kts | 48° |
| 2026-04-20 21:29 | 37.61120 | -122.05873 | 12207 ft | 248 kts | 48° |
| 2026-04-20 21:29 | 37.62402 | -122.04414 | 12656 ft | 249 kts | 48° |
| 2026-04-20 21:29 | 37.63691 | -122.02940 | 13149 ft | 252 kts | 48° |
| 2026-04-20 21:30 | 37.64996 | -122.01444 | 13617 ft | 257 kts | 48° |
| 2026-04-20 21:30 | 37.66331 | -121.99909 | 14173 ft | 257 kts | 49° |
| 2026-04-20 21:30 | 37.67649 | -121.98392 | 14660 ft | 260 kts | 49° |
| 2026-04-20 21:30 | 37.68991 | -121.96843 | 15161 ft | 261 kts | 49° |
| 2026-04-20 21:31 | 37.70489 | -121.95545 | 15545 ft | 274 kts | 22° |
| 2026-04-20 21:31 | 37.72383 | -121.95190 | 16081 ft | 273 kts | 360° |
| 2026-04-20 21:31 | 37.74301 | -121.95232 | 16500 ft | 276 kts | 354° |
| 2026-04-20 21:31 | 37.76206 | -121.95380 | 16956 ft | 278 kts | 353° |
| 2026-04-20 21:32 | 37.78134 | -121.95567 | 17385 ft | 280 kts | 352° |
| 2026-04-20 21:32 | 37.80074 | -121.95769 | 17817 ft | 282 kts | 352° |
| 2026-04-20 21:32 | 37.82045 | -121.95983 | 18237 ft | 284 kts | 352° |
| 2026-04-20 21:32 | 37.84019 | -121.96202 | 18676 ft | 285 kts | 351° |
| 2026-04-20 21:33 | 37.85962 | -121.96420 | 19146 ft | 283 kts | 351° |
| 2026-04-20 21:33 | 37.87922 | -121.96645 | 19555 ft | 285 kts | 350° |
| 2026-04-20 21:33 | 37.89907 | -121.96875 | 19923 ft | 288 kts | 349° |
| 2026-04-20 21:33 | 37.91910 | -121.97108 | 20337 ft | 288 kts | 349° |
| 2026-04-20 21:34 | 37.93905 | -121.97341 | 20718 ft | 290 kts | 348° |
| 2026-04-20 21:34 | 37.95936 | -121.97580 | 21048 ft | 294 kts | 348° |
| 2026-04-20 21:34 | 37.97976 | -121.97820 | 21406 ft | 296 kts | 348° |
| 2026-04-20 21:34 | 38.00032 | -121.98063 | 21715 ft | 299 kts | 348° |
| 2026-04-20 21:35 | 38.02091 | -121.98305 | 22167 ft | 295 kts | 347° |
| 2026-04-20 21:35 | 38.04155 | -121.98546 | 22530 ft | 296 kts | 346° |
| 2026-04-20 21:35 | 38.06215 | -121.98792 | 22812 ft | 299 kts | 345° |
| 2026-04-20 21:35 | 38.08261 | -121.99033 | 23218 ft | 298 kts | 345° |
| 2026-04-20 21:36 | 38.10370 | -121.99284 | 23507 ft | 301 kts | 346° |
| 2026-04-20 21:36 | 38.12435 | -121.99528 | 23943 ft | 295 kts | 346° |
| 2026-04-20 21:36 | 38.14450 | -121.99760 | 24399 ft | 291 kts | 346° |
| 2026-04-20 21:36 | 38.16463 | -122.00000 | 24669 ft | 293 kts | 346° |
| 2026-04-20 21:37 | 38.18497 | -122.00243 | 24979 ft | 294 kts | 346° |
| 2026-04-20 21:37 | 38.20533 | -122.00487 | 25240 ft | 296 kts | 346° |
| 2026-04-20 21:37 | 38.22588 | -122.00733 | 25594 ft | 294 kts | 346° |
| 2026-04-20 21:37 | 38.24630 | -122.00977 | 25851 ft | 297 kts | 347° |
| 2026-04-20 21:38 | 38.26698 | -122.01224 | 26158 ft | 296 kts | 347° |
| 2026-04-20 21:38 | 38.28705 | -122.01459 | 26531 ft | 293 kts | 346° |
| 2026-04-20 21:38 | 38.30727 | -122.01703 | 26733 ft | 296 kts | 347° |
| 2026-04-20 21:38 | 38.32801 | -122.01950 | 27048 ft | 296 kts | 347° |
| 2026-04-20 21:39 | 38.34881 | -122.02200 | 27301 ft | 298 kts | 347° |
| 2026-04-20 21:39 | 38.36939 | -122.02446 | 27599 ft | 299 kts | 347° |
| 2026-04-20 21:39 | 38.38995 | -122.02692 | 27890 ft | 299 kts | 348° |
| 2026-04-20 21:39 | 38.41103 | -122.02946 | 28108 ft | 303 kts | 348° |
| 2026-04-20 21:40 | 38.43193 | -122.03197 | 28374 ft | 304 kts | 348° |
| 2026-04-20 21:40 | 38.45320 | -122.03451 | 28703 ft | 303 kts | 348° |
| 2026-04-20 21:40 | 38.47403 | -122.03700 | 28980 ft | 304 kts | 348° |
| 2026-04-20 21:40 | 38.49535 | -122.03956 | 29216 ft | 306 kts | 348° |
| 2026-04-20 21:41 | 38.51662 | -122.04211 | 29519 ft | 305 kts | 349° |
| 2026-04-20 21:41 | 38.53750 | -122.04459 | 29854 ft | 303 kts | 348° |
| 2026-04-20 21:41 | 38.55830 | -122.04709 | 30136 ft | 302 kts | 348° |
| 2026-04-20 21:41 | 38.57947 | -122.04964 | 30331 ft | 305 kts | 349° |
| 2026-04-20 21:42 | 38.60079 | -122.05222 | 30561 ft | 307 kts | 349° |
| 2026-04-20 21:42 | 38.62180 | -122.05475 | 30823 ft | 307 kts | 349° |
| 2026-04-20 21:42 | 38.64329 | -122.05734 | 30997 ft | 311 kts | 349° |
| 2026-04-20 21:42 | 38.66485 | -122.05994 | 31283 ft | 310 kts | 348° |
| 2026-04-20 21:43 | 38.68637 | -122.06254 | 31453 ft | 313 kts | 348° |
| 2026-04-20 21:43 | 38.70802 | -122.06514 | 31743 ft | 312 kts | 349° |
| 2026-04-20 21:43 | 38.72980 | -122.06778 | 31909 ft | 315 kts | 349° |
| 2026-04-20 21:43 | 38.75164 | -122.07041 | 32233 ft | 311 kts | 349° |
| 2026-04-20 21:44 | 38.77312 | -122.07298 | 32442 ft | 313 kts | 349° |
| 2026-04-20 21:44 | 38.79480 | -122.07561 | 32613 ft | 316 kts | 349° |
| 2026-04-20 21:44 | 38.81685 | -122.07830 | 32783 ft | 319 kts | 349° |
| 2026-04-20 21:44 | 38.83886 | -122.08097 | 32987 ft | 320 kts | 349° |
| 2026-04-20 21:45 | 38.86108 | -122.08366 | 33148 ft | 323 kts | 349° |
| 2026-04-20 21:45 | 38.88351 | -122.08638 | 33383 ft | 323 kts | 349° |
| 2026-04-20 21:45 | 38.90616 | -122.08913 | 33565 ft | 325 kts | 349° |
| 2026-04-20 21:45 | 38.92874 | -122.09187 | 33750 ft | 327 kts | 349° |
| 2026-04-20 21:46 | 38.95132 | -122.09462 | 33924 ft | 329 kts | 349° |
| 2026-04-20 21:46 | 38.97429 | -122.09740 | 34220 ft | 327 kts | 350° |
| 2026-04-20 21:46 | 38.99709 | -122.10017 | 34350 ft | 331 kts | 350° |
| 2026-04-20 21:46 | 39.01985 | -122.10294 | 34622 ft | 330 kts | 350° |
| 2026-04-20 21:47 | 39.04283 | -122.10573 | 34856 ft | 330 kts | 350° |
| 2026-04-20 21:47 | 39.06560 | -122.10851 | 35013 ft | 332 kts | 350° |
| 2026-04-20 21:47 | 39.08870 | -122.11133 | 35230 ft | 333 kts | 350° |
| 2026-04-20 21:47 | 39.11200 | -122.11417 | 35424 ft | 334 kts | 349° |
| 2026-04-20 21:48 | 39.13509 | -122.11699 | 35583 ft | 335 kts | 350° |
| 2026-04-20 21:48 | 39.15815 | -122.11980 | 35757 ft | 335 kts | 349° |
| 2026-04-20 21:48 | 39.18133 | -122.12263 | 35976 ft | 335 kts | 350° |
| 2026-04-20 21:48 | 39.20473 | -122.12550 | 36124 ft | 336 kts | 349° |
| 2026-04-20 21:49 | 39.22818 | -122.12837 | 36255 ft | 339 kts | 350° |
| 2026-04-20 21:49 | 39.25157 | -122.13124 | 36433 ft | 339 kts | 349° |
| 2026-04-20 21:49 | 39.27491 | -122.13409 | 36687 ft | 337 kts | 350° |
| 2026-04-20 21:50 | 39.32217 | -122.13990 | 36946 ft | 341 kts | 349° |
| 2026-04-20 21:50 | 39.34562 | -122.14278 | 37116 ft | 341 kts | 350° |
| 2026-04-20 21:50 | 39.36917 | -122.14568 | 37270 ft | 342 kts | 349° |
| 2026-04-20 21:50 | 39.39283 | -122.14858 | 37415 ft | 343 kts | 350° |
| 2026-04-20 21:51 | 39.41679 | -122.15153 | 37576 ft | 344 kts | 350° |
| 2026-04-20 21:51 | 39.44063 | -122.15447 | 37677 ft | 346 kts | 350° |
| 2026-04-20 21:51 | 39.46452 | -122.15741 | 37891 ft | 345 kts | 350° |
| 2026-04-20 21:52 | 39.51238 | -122.16331 | 38199 ft | 346 kts | 350° |
| 2026-04-20 21:52 | 39.56079 | -122.16930 | 38415 ft | 350 kts | 350° |
| 2026-04-20 21:52 | 39.58512 | -122.17232 | 38604 ft | 349 kts | 350° |
| 2026-04-20 21:53 | 39.60925 | -122.17530 | 38714 ft | 351 kts | 350° |
| 2026-04-20 21:53 | 39.63350 | -122.17830 | 38898 ft | 350 kts | 350° |
| 2026-04-20 21:53 | 39.65789 | -122.18133 | 38961 ft | 353 kts | 350° |
| 2026-04-20 21:53 | 39.68216 | -122.18433 | 39162 ft | 352 kts | 350° |
| 2026-04-20 21:54 | 39.70691 | -122.18741 | 39242 ft | 354 kts | 350° |
| 2026-04-20 21:54 | 39.73119 | -122.19042 | 39449 ft | 353 kts | 351° |
| 2026-04-20 21:54 | 39.75582 | -122.19348 | 39575 ft | 354 kts | 350° |
| 2026-04-20 21:55 | 39.80484 | -122.19958 | 39815 ft | 356 kts | 350° |
| 2026-04-20 21:55 | 39.85427 | -122.20575 | 39964 ft | 360 kts | 351° |
| 2026-04-20 21:56 | 39.90487 | -122.21208 | 39982 ft | 369 kts | 351° |
| 2026-04-20 21:56 | 39.95667 | -122.21858 | 39979 ft | 378 kts | 350° |
| 2026-04-20 21:57 | 40.00934 | -122.22517 | 39993 ft | 388 kts | 351° |
| 2026-04-20 21:57 | 40.06411 | -122.23205 | 39973 ft | 398 kts | 351° |
| 2026-04-20 21:58 | 40.11969 | -122.23913 | 39989 ft | 404 kts | 351° |
| 2026-04-20 21:58 | 40.17571 | -122.24674 | 40004 ft | 410 kts | 350° |
| 2026-04-20 21:59 | 40.23266 | -122.25452 | 39988 ft | 415 kts | 350° |
| 2026-04-20 21:59 | 40.29041 | -122.26241 | 39986 ft | 419 kts | 350° |
| 2026-04-20 22:00 | 40.34864 | -122.27036 | 39977 ft | 423 kts | 351° |
| 2026-04-20 22:00 | 40.40744 | -122.27841 | 39987 ft | 427 kts | 350° |
| 2026-04-20 22:01 | 40.46695 | -122.28657 | 39986 ft | 430 kts | 351° |
| 2026-04-20 22:01 | 40.52680 | -122.29398 | 39993 ft | 434 kts | 353° |
| 2026-04-20 22:02 | 40.58720 | -122.29856 | 39997 ft | 437 kts | 354° |
| 2026-04-20 22:02 | 40.64809 | -122.30301 | 40002 ft | 439 kts | 354° |
| 2026-04-20 22:03 | 40.70937 | -122.30759 | 40010 ft | 441 kts | 354° |
| 2026-04-20 22:03 | 40.77037 | -122.31222 | 39986 ft | 443 kts | 354° |
| 2026-04-20 22:04 | 40.83214 | -122.31695 | 39990 ft | 446 kts | 354° |
| 2026-04-20 22:04 | 40.89383 | -122.32170 | 39978 ft | 447 kts | 354° |
| 2026-04-20 22:05 | 40.95591 | -122.32650 | 39994 ft | 448 kts | 354° |
| 2026-04-20 22:05 | 41.01835 | -122.33134 | 40011 ft | 450 kts | 354° |
| 2026-04-20 22:06 | 41.08074 | -122.33619 | 39980 ft | 452 kts | 354° |
| 2026-04-20 22:06 | 41.14396 | -122.34112 | 39955 ft | 452 kts | 354° |
| 2026-04-20 22:07 | 41.20656 | -122.34600 | 39977 ft | 452 kts | 354° |
| 2026-04-20 22:07 | 41.26937 | -122.35091 | 39973 ft | 452 kts | 354° |
| 2026-04-20 22:08 | 41.33203 | -122.35583 | 39956 ft | 453 kts | 354° |
| 2026-04-20 22:08 | 41.39492 | -122.36076 | 39964 ft | 453 kts | 354° |
| 2026-04-20 22:09 | 41.45770 | -122.36571 | 39971 ft | 454 kts | 354° |
| 2026-04-20 22:09 | 41.52111 | -122.37071 | 39965 ft | 455 kts | 354° |
| 2026-04-20 22:10 | 41.58401 | -122.37568 | 39961 ft | 456 kts | 354° |
| 2026-04-20 22:10 | 41.64721 | -122.38068 | 39961 ft | 456 kts | 353° |
| 2026-04-20 22:11 | 41.71078 | -122.38572 | 39944 ft | 458 kts | 353° |
| 2026-04-20 22:11 | 41.77433 | -122.39078 | 39938 ft | 459 kts | 354° |
| 2026-04-20 22:12 | 41.83800 | -122.39584 | 39951 ft | 460 kts | 354° |
| 2026-04-20 22:12 | 41.90183 | -122.40094 | 39928 ft | 461 kts | 354° |
| 2026-04-20 22:13 | 41.96600 | -122.40607 | 39950 ft | 462 kts | 354° |
| 2026-04-20 22:13 | 42.03001 | -122.41119 | 39942 ft | 463 kts | 354° |
| 2026-04-20 22:14 | 42.09438 | -122.41636 | 39923 ft | 464 kts | 353° |
| 2026-04-20 22:14 | 42.15880 | -122.42155 | 39922 ft | 464 kts | 353° |
| 2026-04-20 22:15 | 42.22330 | -122.42674 | 39919 ft | 463 kts | 353° |
| 2026-04-20 22:15 | 42.28746 | -122.43192 | 39926 ft | 462 kts | 353° |
| 2026-04-20 22:16 | 42.35180 | -122.43552 | 39927 ft | 462 kts | 355° |
| 2026-04-20 22:16 | 42.41586 | -122.43814 | 39931 ft | 462 kts | 355° |
| 2026-04-20 22:17 | 42.48006 | -122.44082 | 39929 ft | 462 kts | 355° |
| 2026-04-20 22:17 | 42.54429 | -122.44356 | 39925 ft | 462 kts | 355° |
| 2026-04-20 22:18 | 42.60845 | -122.44634 | 39925 ft | 462 kts | 354° |
| 2026-04-20 22:18 | 42.67233 | -122.44912 | 39923 ft | 462 kts | 355° |
| 2026-04-20 22:19 | 42.73654 | -122.45194 | 39922 ft | 462 kts | 355° |
| 2026-04-20 22:19 | 42.80086 | -122.45476 | 39924 ft | 462 kts | 355° |
| 2026-04-20 22:20 | 42.86529 | -122.45761 | 39917 ft | 462 kts | 354° |
| 2026-04-20 22:20 | 42.92923 | -122.46044 | 39929 ft | 462 kts | 354° |
| 2026-04-20 22:21 | 42.99368 | -122.46330 | 39926 ft | 462 kts | 354° |
| 2026-04-20 22:21 | 43.05753 | -122.46614 | 39931 ft | 462 kts | 354° |
| 2026-04-20 22:22 | 43.12199 | -122.46902 | 39921 ft | 462 kts | 354° |
| 2026-04-20 22:22 | 43.18600 | -122.47187 | 39918 ft | 461 kts | 354° |
| 2026-04-20 22:23 | 43.25008 | -122.47474 | 39908 ft | 461 kts | 354° |
| 2026-04-20 22:23 | 43.31387 | -122.47760 | 39924 ft | 460 kts | 354° |
| 2026-04-20 22:24 | 43.37802 | -122.48048 | 39912 ft | 460 kts | 354° |
| 2026-04-20 22:24 | 43.44201 | -122.48337 | 39918 ft | 460 kts | 354° |
| 2026-04-20 22:25 | 43.50581 | -122.48625 | 39918 ft | 460 kts | 353° |
| 2026-04-20 22:25 | 43.56988 | -122.48915 | 39917 ft | 460 kts | 354° |
| 2026-04-20 22:26 | 43.63362 | -122.49204 | 39900 ft | 461 kts | 354° |
| 2026-04-20 22:26 | 43.69805 | -122.49497 | 39902 ft | 462 kts | 354° |
| 2026-04-20 22:27 | 43.79405 | -122.49934 | 39883 ft | 463 kts | 353° |
| 2026-04-20 22:27 | 43.85847 | -122.50229 | 39874 ft | 463 kts | 353° |
| 2026-04-20 22:28 | 43.92280 | -122.50523 | 39884 ft | 464 kts | 354° |
| 2026-04-20 22:28 | 43.98724 | -122.50819 | 39872 ft | 464 kts | 353° |
| 2026-04-20 22:29 | 44.05185 | -122.51116 | 39872 ft | 465 kts | 353° |
| 2026-04-20 22:29 | 44.11627 | -122.51413 | 39873 ft | 465 kts | 353° |
| 2026-04-20 22:30 | 44.18070 | -122.51710 | 39876 ft | 464 kts | 353° |
| 2026-04-20 22:30 | 44.24528 | -122.52008 | 39883 ft | 463 kts | 353° |
| 2026-04-20 22:31 | 44.30931 | -122.52305 | 39873 ft | 462 kts | 353° |
| 2026-04-20 22:31 | 44.37383 | -122.52605 | 39878 ft | 462 kts | 353° |
| 2026-04-20 22:32 | 44.43780 | -122.52903 | 39867 ft | 462 kts | 353° |
| 2026-04-20 22:32 | 44.50199 | -122.53202 | 39876 ft | 461 kts | 353° |
| 2026-04-20 22:33 | 44.56583 | -122.53502 | 39860 ft | 462 kts | 353° |
| 2026-04-20 22:33 | 44.63015 | -122.53803 | 39866 ft | 461 kts | 353° |
| 2026-04-20 22:34 | 44.69442 | -122.54105 | 39858 ft | 462 kts | 353° |
| 2026-04-20 22:34 | 44.75822 | -122.54406 | 39861 ft | 462 kts | 353° |
| 2026-04-20 22:35 | 44.82240 | -122.54709 | 39860 ft | 462 kts | 353° |
| 2026-04-20 22:35 | 44.88664 | -122.55013 | 39856 ft | 463 kts | 353° |
| 2026-04-20 22:36 | 44.95095 | -122.55318 | 39853 ft | 463 kts | 353° |
| 2026-04-20 22:36 | 45.01548 | -122.55624 | 39858 ft | 463 kts | 353° |
| 2026-04-20 22:37 | 45.07988 | -122.55931 | 39868 ft | 464 kts | 353° |
| 2026-04-20 22:37 | 45.14428 | -122.56239 | 39868 ft | 463 kts | 353° |
| 2026-04-20 22:38 | 45.20850 | -122.56545 | 39860 ft | 462 kts | 352° |
| 2026-04-20 22:38 | 45.24079 | -122.56701 | 39547 ft | 466 kts | 352° |
| 2026-04-20 22:38 | 45.27317 | -122.56857 | 38954 ft | 465 kts | 353° |
| 2026-04-20 22:39 | 45.30530 | -122.57009 | 38627 ft | 458 kts | 352° |
| 2026-04-20 22:39 | 45.33718 | -122.57161 | 37982 ft | 459 kts | 352° |
| 2026-04-20 22:39 | 45.36887 | -122.57313 | 37373 ft | 459 kts | 352° |
| 2026-04-20 22:39 | 45.40060 | -122.57467 | 36790 ft | 460 kts | 352° |
| 2026-04-20 22:40 | 45.43276 | -122.57623 | 36199 ft | 462 kts | 352° |
| 2026-04-20 22:40 | 45.46466 | -122.57778 | 35624 ft | 463 kts | 352° |
| 2026-04-20 22:40 | 45.49695 | -122.57935 | 35060 ft | 463 kts | 352° |
| 2026-04-20 22:40 | 45.51567 | -122.58025 | 34729 ft | 463 kts | 352° |
| 2026-04-20 22:41 | 45.54767 | -122.58180 | 34171 ft | 464 kts | 352° |
| 2026-04-20 22:41 | 45.58012 | -122.58338 | 33631 ft | 466 kts | 352° |
| 2026-04-20 22:41 | 45.61221 | -122.58495 | 33156 ft | 468 kts | 352° |
| 2026-04-20 22:41 | 45.64504 | -122.58656 | 32667 ft | 471 kts | 352° |
| 2026-04-20 22:42 | 45.67779 | -122.58817 | 32190 ft | 475 kts | 352° |
| 2026-04-20 22:42 | 45.71085 | -122.58979 | 31719 ft | 479 kts | 353° |
| 2026-04-20 22:42 | 45.74417 | -122.59184 | 31229 ft | 477 kts | 350° |
| 2026-04-20 22:42 | 45.77647 | -122.59825 | 30764 ft | 470 kts | 345° |
| 2026-04-20 22:43 | 45.80878 | -122.60600 | 30272 ft | 467 kts | 344° |
| 2026-04-20 22:43 | 45.84056 | -122.61396 | 29788 ft | 464 kts | 345° |
| 2026-04-20 22:43 | 45.87209 | -122.62192 | 29309 ft | 461 kts | 345° |
| 2026-04-20 22:43 | 45.90357 | -122.62987 | 28811 ft | 458 kts | 345° |
| 2026-04-20 22:44 | 45.93475 | -122.63773 | 28314 ft | 453 kts | 346° |
| 2026-04-20 22:44 | 45.96563 | -122.64548 | 27823 ft | 447 kts | 346° |
| 2026-04-20 22:44 | 45.99571 | -122.65305 | 27321 ft | 441 kts | 346° |
| 2026-04-20 22:44 | 46.02589 | -122.66062 | 26832 ft | 435 kts | 346° |
| 2026-04-20 22:45 | 46.05548 | -122.66806 | 26380 ft | 429 kts | 347° |
| 2026-04-20 22:45 | 46.08442 | -122.67535 | 25939 ft | 424 kts | 347° |
| 2026-04-20 22:45 | 46.11327 | -122.68261 | 25478 ft | 419 kts | 347° |
| 2026-04-20 22:45 | 46.14180 | -122.68980 | 25032 ft | 414 kts | 348° |
| 2026-04-20 22:46 | 46.17016 | -122.69696 | 24556 ft | 410 kts | 348° |
| 2026-04-20 22:46 | 46.19804 | -122.70400 | 24087 ft | 406 kts | 348° |
| 2026-04-20 22:46 | 46.22586 | -122.71101 | 23604 ft | 402 kts | 349° |
| 2026-04-20 22:46 | 46.25326 | -122.71794 | 23145 ft | 399 kts | 349° |
| 2026-04-20 22:47 | 46.28043 | -122.72482 | 22675 ft | 396 kts | 349° |
| 2026-04-20 22:47 | 46.30744 | -122.73164 | 22213 ft | 394 kts | 349° |
| 2026-04-20 22:47 | 46.33421 | -122.73841 | 21743 ft | 391 kts | 349° |
| 2026-04-20 22:47 | 46.36095 | -122.74521 | 21266 ft | 390 kts | 349° |
| 2026-04-20 22:48 | 46.38737 | -122.75191 | 20802 ft | 388 kts | 349° |
| 2026-04-20 22:48 | 46.41394 | -122.75865 | 20345 ft | 387 kts | 349° |
| 2026-04-20 22:48 | 46.44043 | -122.76539 | 19873 ft | 385 kts | 349° |
| 2026-04-20 22:48 | 46.46661 | -122.77205 | 19412 ft | 383 kts | 349° |
| 2026-04-20 22:49 | 46.49265 | -122.77869 | 18951 ft | 382 kts | 349° |
| 2026-04-20 22:49 | 46.51878 | -122.78534 | 18487 ft | 378 kts | 349° |
| 2026-04-20 22:49 | 46.54464 | -122.79194 | 18036 ft | 374 kts | 349° |
| 2026-04-20 22:49 | 46.57017 | -122.79848 | 17588 ft | 371 kts | 349° |
| 2026-04-20 22:50 | 46.59525 | -122.80488 | 17152 ft | 369 kts | 350° |
| 2026-04-20 22:50 | 46.62066 | -122.81138 | 16717 ft | 367 kts | 350° |
| 2026-04-20 22:50 | 46.64563 | -122.81778 | 16292 ft | 365 kts | 350° |
| 2026-04-20 22:50 | 46.67046 | -122.82415 | 15853 ft | 364 kts | 350° |
| 2026-04-20 22:51 | 46.69547 | -122.83057 | 15399 ft | 363 kts | 351° |
| 2026-04-20 22:51 | 46.72009 | -122.83689 | 14957 ft | 362 kts | 351° |
| 2026-04-20 22:51 | 46.74501 | -122.84329 | 14510 ft | 362 kts | 351° |
| 2026-04-20 22:51 | 46.76954 | -122.84960 | 14066 ft | 361 kts | 351° |
| 2026-04-20 22:52 | 46.79421 | -122.85596 | 13621 ft | 360 kts | 351° |
| 2026-04-20 22:52 | 46.81874 | -122.86227 | 13183 ft | 360 kts | 351° |
| 2026-04-20 22:52 | 46.84315 | -122.86858 | 13039 ft | 349 kts | 351° |
| 2026-04-20 22:52 | 46.86672 | -122.87468 | 13012 ft | 338 kts | 351° |
| 2026-04-20 22:53 | 46.88931 | -122.88053 | 13007 ft | 331 kts | 351° |
| 2026-04-20 22:53 | 46.91256 | -122.88654 | 13018 ft | 335 kts | 351° |
| 2026-04-20 22:53 | 46.93562 | -122.89250 | 13012 ft | 340 kts | 351° |
| 2026-04-20 22:53 | 46.95911 | -122.89426 | 12982 ft | 340 kts | 12° |
| 2026-04-20 22:54 | 46.98056 | -122.88178 | 13016 ft | 333 kts | 36° |
| 2026-04-20 22:54 | 46.99950 | -122.86208 | 13009 ft | 332 kts | 42° |
| 2026-04-20 22:54 | 47.01747 | -122.84098 | 12805 ft | 336 kts | 44° |
| 2026-04-20 22:54 | 47.03555 | -122.81884 | 12562 ft | 334 kts | 44° |
| 2026-04-20 22:55 | 47.05303 | -122.79709 | 12303 ft | 325 kts | 45° |
| 2026-04-20 22:55 | 47.06993 | -122.77582 | 12046 ft | 318 kts | 45° |
| 2026-04-20 22:55 | 47.08638 | -122.75494 | 11790 ft | 311 kts | 45° |
| 2026-04-20 22:55 | 47.10258 | -122.73433 | 11541 ft | 305 kts | 45° |
| 2026-04-20 22:56 | 47.11829 | -122.71432 | 11293 ft | 300 kts | 45° |
| 2026-04-20 22:56 | 47.13390 | -122.69442 | 11044 ft | 297 kts | 45° |
| 2026-04-20 22:56 | 47.14955 | -122.67447 | 10789 ft | 294 kts | 45° |
| 2026-04-20 22:56 | 47.16481 | -122.65496 | 10546 ft | 291 kts | 44° |
| 2026-04-20 22:57 | 47.17995 | -122.63564 | 10303 ft | 289 kts | 44° |
| 2026-04-20 22:57 | 47.19505 | -122.61632 | 10062 ft | 287 kts | 44° |
| 2026-04-20 22:57 | 47.21015 | -122.59697 | 9810 ft | 285 kts | 45° |
| 2026-04-20 22:57 | 47.22122 | -122.57403 | 9547 ft | 273 kts | 72° |
| 2026-04-20 22:58 | 47.22668 | -122.54762 | 9311 ft | 266 kts | 77° |
| 2026-04-20 22:58 | 47.23106 | -122.52166 | 9064 ft | 261 kts | 79° |
| 2026-04-20 22:58 | 47.23508 | -122.49580 | 8810 ft | 258 kts | 80° |
| 2026-04-20 22:58 | 47.23895 | -122.47027 | 8562 ft | 255 kts | 80° |
| 2026-04-20 22:59 | 47.24273 | -122.44503 | 8317 ft | 253 kts | 80° |
| 2026-04-20 22:59 | 47.24650 | -122.41971 | 8088 ft | 250 kts | 79° |
| 2026-04-20 22:59 | 47.25014 | -122.39520 | 7951 ft | 245 kts | 79° |
| 2026-04-20 22:59 | 47.25375 | -122.37078 | 7834 ft | 241 kts | 80° |
| 2026-04-20 23:00 | 47.25724 | -122.34717 | 7733 ft | 237 kts | 81° |
| 2026-04-20 23:00 | 47.26071 | -122.32352 | 7628 ft | 234 kts | 81° |
| 2026-04-20 23:00 | 47.26411 | -122.30039 | 7519 ft | 233 kts | 80° |
| 2026-04-20 23:00 | 47.26751 | -122.27718 | 7398 ft | 232 kts | 81° |
| 2026-04-20 23:01 | 47.27155 | -122.25413 | 7258 ft | 234 kts | 70° |
| 2026-04-20 23:01 | 47.28181 | -122.23550 | 7103 ft | 239 kts | 45° |
| 2026-04-20 23:01 | 47.29474 | -122.21959 | 6855 ft | 244 kts | 40° |
| 2026-04-20 23:01 | 47.30831 | -122.20438 | 6595 ft | 248 kts | 39° |
| 2026-04-20 23:02 | 47.32218 | -122.18914 | 6333 ft | 250 kts | 38° |
| 2026-04-20 23:02 | 47.33606 | -122.17396 | 6046 ft | 248 kts | 39° |
| 2026-04-20 23:02 | 47.35081 | -122.16118 | 5719 ft | 250 kts | 18° |
| 2026-04-20 23:02 | 47.36797 | -122.16105 | 5097 ft | 253 kts | 346° |
| 2026-04-20 23:03 | 47.38356 | -122.17179 | 4582 ft | 248 kts | 331° |
| 2026-04-20 23:03 | 47.39822 | -122.18503 | 4066 ft | 242 kts | 327° |
| 2026-04-20 23:03 | 47.41172 | -122.19808 | 3820 ft | 227 kts | 327° |
| 2026-04-20 23:03 | 47.42485 | -122.21074 | 3329 ft | 219 kts | 327° |
| 2026-04-20 23:04 | 47.43712 | -122.22269 | 2681 ft | 210 kts | 327° |
| 2026-04-20 23:04 | 47.44930 | -122.23367 | 2144 ft | 193 kts | 331° |
| 2026-04-20 23:04 | 47.45998 | -122.24287 | 1745 ft | 166 kts | 330° |
| 2026-04-20 23:04 | 47.46899 | -122.25053 | 1426 ft | 131 kts | 330° |
| 2026-04-20 23:05 | 47.47603 | -122.25671 | 1148 ft | 110 kts | 329° |
| 2026-04-20 23:05 | 47.48234 | -122.26208 | 909 ft | 97 kts | 331° |
| 2026-04-20 23:05 | 47.48792 | -122.26674 | 730 ft | 90 kts | 330° |
| 2026-04-20 23:05 | 47.49318 | -122.27126 | 591 ft | 87 kts | 329° |
| 2026-04-20 23:06 | 47.49854 | -122.27570 | 498 ft | 87 kts | 330° |
| 2026-04-20 23:06 | 47.50401 | -122.28046 | 390 ft | 95 kts | 329° |
| 2026-04-20 23:06 | 47.50992 | -122.28548 | 279 ft | 100 kts | 329° |
| 2026-04-20 23:06 | 47.51601 | -122.29070 | 128 ft | 101 kts | 329° |
| 2026-04-20 23:07 | 47.52194 | -122.29569 | 26 ft | 92 kts | 329° |
| 2026-04-20 23:07 | 47.52632 | -122.29940 | 24 ft | 27 kts | 332° |
| 2026-04-20 23:07 | 47.52721 | -122.29894 | 24 ft | 13 kts | 51° |
| 2026-04-20 23:07 | 47.52799 | -122.29841 | 24 ft | 11 kts | 14° |
| 2026-04-20 23:08 | 47.52873 | -122.29845 | 24 ft | 10 kts | 329° |
| 2026-04-20 23:08 | 47.52941 | -122.29900 | 24 ft | 12 kts | 330° |
| 2026-04-20 23:08 | 47.53027 | -122.29974 | 24 ft | 15 kts | 329° |
| 2026-04-20 23:08 | 47.53115 | -122.30048 | 24 ft | 13 kts | 330° |
| 2026-04-20 23:09 | 47.53195 | -122.30116 | 24 ft | 12 kts | 330° |
| 2026-04-20 23:09 | 47.53278 | -122.30185 | 24 ft | 15 kts | 331° |
| 2026-04-20 23:09 | 47.53378 | -122.30268 | 24 ft | 18 kts | 331° |
| 2026-04-20 23:09 | 47.53492 | -122.30363 | 24 ft | 17 kts | 330° |
| 2026-04-20 23:10 | 47.53590 | -122.30457 | 24 ft | 16 kts | 321° |
| 2026-04-20 23:10 | 47.53678 | -122.30551 | 24 ft | 14 kts | 330° |
| 2026-04-20 23:10 | 47.53746 | -122.30602 | 24 ft | 7 kts | 354° |
| 2026-04-20 23:10 | 47.53785 | -122.30560 | 24 ft | 6 kts | 71° |
| 2026-04-20 23:11 | 47.53793 | -122.30500 | 24 ft | 5 kts | 100° |
| 2026-04-20 23:11 | 47.53783 | -122.30502 | 24 ft | 2 kts | 280° |
| 2026-04-20 23:11 | 47.53783 | -122.30504 | 24 ft | 0 kts | 281° |